Time;durP1;ratioP1;P1;durP2;ratioP2;P2;SDS_P1;SDS_P2;PMS_P1;PMS_P2;Temp;Humidity;BMP_temperature;BMP_pressure;BME280_temperature;BME280_humidity;BME280_pressure;Samples;Min_cycle;Max_cycle;Signal;HPM_P1;HPM_P2
2022/11/19 00:00:46;;;;;;;3.80;2.47;;;;;;;17.09;49.19;100401.78;4950391;29;20035;-61
2022/11/19 00:03:16;;;;;;;5.82;2.88;;;;;;;17.10;49.90;100398.06;4981963;28;20034;-61
2022/11/19 00:05:42;;;;;;;4.47;2.60;;;;;;;17.10;49.64;100400.78;4983135;28;20047;-61
2022/11/19 00:08:08;;;;;;;3.85;2.78;;;;;;;17.12;50.79;100398.72;4965749;29;20069;-61
2022/11/19 00:10:35;;;;;;;4.13;3.05;;;;;;;17.13;50.02;100405.84;4965645;29;20035;-61
2022/11/19 00:13:02;;;;;;;5.38;3.05;;;;;;;17.13;49.11;100408.53;4973046;28;20034;-61
2022/11/19 00:15:27;;;;;;;6.90;2.97;;;;;;;17.13;49.58;100406.69;4968535;28;20023;-61
2022/11/19 00:17:53;;;;;;;11.02;3.50;;;;;;;17.13;50.32;100403.97;4970083;28;20037;-61
2022/11/19 00:20:18;;;;;;;3.97;2.95;;;;;;;17.15;49.94;100406.47;4968851;28;20038;-61
2022/11/19 00:22:44;;;;;;;4.60;3.65;;;;;;;17.15;50.45;100404.63;4968438;28;20423;-61
2022/11/19 00:25:10;;;;;;;5.28;3.35;;;;;;;17.16;50.23;100405.47;4968958;28;20039;-61
2022/11/19 00:27:36;;;;;;;6.60;3.22;;;;;;;17.15;50.15;100406.47;4968947;28;20030;-61
2022/11/19 00:30:03;;;;;;;9.95;3.78;;;;;;;17.14;50.21;100402.94;4969737;28;20517;-61
2022/11/19 00:32:29;;;;;;;5.75;3.78;;;;;;;17.16;50.16;100410.88;4986075;28;20054;-61
2022/11/19 00:34:55;;;;;;;6.57;4.03;;;;;;;17.15;49.96;100406.47;4985713;28;20046;-61
2022/11/19 00:37:20;;;;;;;9.82;4.05;;;;;;;17.12;49.06;100398.72;4985832;28;20031;-61
2022/11/19 00:39:45;;;;;;;5.00;4.10;;;;;;;17.12;50.22;100402.28;4986425;28;20026;-61
2022/11/19 00:42:11;;;;;;;4.45;3.47;;;;;;;17.15;49.87;100403.78;4987505;28;20034;-61
2022/11/19 00:44:36;;;;;;;9.20;4.57;;;;;;;17.14;50.51;100407.53;4988107;28;20109;-61
2022/11/19 00:47:02;;;;;;;7.50;4.25;;;;;;;17.15;49.56;100411.91;4987011;28;20545;-61
2022/11/19 00:49:27;;;;;;;5.88;4.10;;;;;;;17.15;49.87;100403.78;4971203;28;20050;-61
2022/11/19 00:51:54;;;;;;;4.60;3.33;;;;;;;17.15;49.95;100409.19;4988257;28;20034;-61
2022/11/19 00:54:19;;;;;;;7.70;5.05;;;;;;;17.14;50.16;100407.53;4988782;28;20047;-61
2022/11/19 00:56:45;;;;;;;7.53;4.63;;;;;;;17.14;50.02;100415.66;4987389;28;20111;-61
2022/11/19 00:59:10;;;;;;;8.02;4.55;;;;;;;17.15;50.57;100417.31;4989105;28;20046;-61
2022/11/19 01:01:35;;;;;;;11.23;5.20;;;;;;;17.15;49.77;100425.44;4988741;28;20122;-61
2022/11/19 01:04:01;;;;;;;7.55;4.57;;;;;;;17.15;50.07;100422.72;4986820;28;20039;-61
2022/11/19 01:06:27;;;;;;;6.75;4.07;;;;;;;17.13;49.73;100424.78;4971276;28;20033;-61
2022/11/19 01:08:52;;;;;;;8.95;5.30;;;;;;;17.13;50.66;100428.34;4987680;28;20022;-61
2022/11/19 01:11:23;;;;;;;10.13;4.85;;;;;;;17.16;51.11;100427.13;4989231;28;20039;-61
2022/11/19 01:13:49;;;;;;;7.20;5.15;;;;;;;17.16;49.70;100429.84;4989377;28;20031;-61
2022/11/19 01:16:23;;;;;;;8.73;4.55;;;;;;;17.15;50.36;100436.25;4989416;28;20095;-61
2022/11/19 01:18:49;;;;;;;9.77;5.53;;;;;;;17.15;49.78;100430.84;4986360;28;20118;-61
2022/11/19 01:21:15;;;;;;;8.27;5.25;;;;;;;17.17;49.98;100436.94;4985950;28;20031;-61
2022/11/19 01:23:41;;;;;;;5.63;4.07;;;;;;;17.15;50.52;100436.25;4985183;28;20477;-61
2022/11/19 01:26:08;;;;;;;7.45;4.53;;;;;;;17.17;50.88;100439.66;4986106;28;20043;-61
2022/11/19 01:28:33;;;;;;;6.57;4.05;;;;;;;17.14;50.48;100437.28;4967844;28;20030;-61
2022/11/19 01:30:59;;;;;;;5.50;3.72;;;;;;;17.10;49.75;100444.09;4985143;28;20508;-61
2022/11/19 01:33:24;;;;;;;7.15;3.55;;;;;;;17.08;49.89;100446.13;4969709;28;20022;-62
2022/11/19 01:36:14;;;;;;;6.28;4.07;;;;;;;17.05;50.66;100451.91;4987065;28;20038;-62
2022/11/19 01:38:40;;;;;;;10.63;5.47;;;;;;;17.01;50.43;100450.56;4962720;28;20047;-62
2022/11/19 01:41:06;;;;;;;12.57;6.78;;;;;;;16.93;49.59;100461.44;4984370;28;20042;-62
2022/11/19 01:43:39;;;;;;;12.15;6.57;;;;;;;16.84;50.32;100458.78;4977481;28;20035;-63
2022/11/19 01:46:04;;;;;;;;;;;;;;;16.77;49.82;100457.84;4975887;28;20046;-63
2022/11/19 01:48:31;;;;;;;10.85;5.93;;;;;;;16.66;50.57;100460.94;4973498;28;19921;-63
2022/11/19 01:51:14;;;;;;;14.73;6.85;;;;;;;16.60;50.63;100464.34;4957865;28;20077;-63
2022/11/19 01:53:42;;;;;;;14.30;7.65;;;;;;;16.50;50.79;100463.69;4973956;28;20039;-64
2022/11/19 01:56:08;;;;;;;13.27;7.15;;;;;;;16.48;50.59;100470.28;4975434;28;20035;-63
2022/11/19 01:58:43;;;;;;;12.95;7.63;;;;;;;16.41;50.03;100472.88;4977349;28;20120;-62
2022/11/19 02:01:09;;;;;;;17.85;8.63;;;;;;;16.38;49.69;100481.31;4982643;28;20031;-62
2022/11/19 02:03:37;;;;;;;13.27;7.47;;;;;;;16.33;51.12;100481.00;4985823;28;20061;-62
2022/11/19 02:06:02;;;;;;;12.27;6.93;;;;;;;16.25;50.70;100470.19;4972311;28;20054;-62
2022/11/19 02:08:38;;;;;;;12.40;6.47;;;;;;;16.22;51.00;100486.75;4990863;28;20045;-62
2022/11/19 02:11:16;;;;;;;14.93;7.53;;;;;;;16.15;50.85;100491.19;4990715;28;20031;-62
2022/11/19 02:14:17;;;;;;;10.43;5.63;;;;;;;16.05;50.70;100490.56;4982242;28;20501;-63
2022/11/19 02:16:54;;;;;;;10.52;6.28;;;;;;;15.95;50.52;100481.78;4979327;28;20055;-66
2022/11/19 02:19:47;;;;;;;11.95;6.60;;;;;;;15.85;51.14;100490.09;4978901;28;20041;-66
2022/11/19 02:22:44;;;;;;;17.65;6.88;;;;;;;15.73;51.06;100489.59;4963281;28;20058;-64
2022/11/19 02:25:09;;;;;;;11.88;6.60;;;;;;;15.64;50.88;100498.72;4979203;28;20034;-64
2022/11/19 02:27:49;;;;;;;11.13;6.20;;;;;;;15.57;50.28;100492.31;4979199;28;20143;-64
2022/11/19 02:30:16;;;;;;;8.60;5.38;;;;;;;15.50;51.20;100494.00;4979359;28;20027;-65
2022/11/19 02:32:41;;;;;;;11.15;5.72;;;;;;;15.45;50.05;100504.41;4979707;28;20081;-65
2022/11/19 02:35:16;;;;;;;12.60;6.22;;;;;;;15.40;50.81;100496.00;4981356;28;20039;-63
2022/11/19 02:37:49;;;;;;;11.50;7.25;;;;;;;15.37;49.94;100500.88;4980206;28;20393;-63
2022/11/19 02:40:28;;;;;;;14.07;6.90;;;;;;;15.28;50.81;100507.28;4981837;28;20416;-63
2022/11/19 02:43:16;;;;;;;11.88;6.68;;;;;;;15.21;49.43;100501.72;4983416;28;20066;-62
2022/11/19 02:46:05;;;;;;;12.25;6.05;;;;;;;15.13;50.45;100509.81;4987024;28;20043;-62
2022/11/19 02:48:37;;;;;;;14.10;7.03;;;;;;;15.07;50.14;100510.47;4984837;28;20038;-62
2022/11/19 02:51:03;;;;;;;15.35;8.02;;;;;;;15.05;49.75;100513.31;4977339;28;20034;-62
2022/11/19 02:53:29;;;;;;;12.70;7.57;;;;;;;15.03;49.61;100519.88;4994554;28;20093;-62
2022/11/19 02:56:09;;;;;;;12.18;6.90;;;;;;;15.04;50.27;100518.88;4976859;28;20035;-62
2022/11/19 03:06:53;;;;;;;12.90;7.03;;;;;;;14.84;49.05;100520.19;4991021;28;20034;-62
2022/11/19 03:09:19;;;;;;;14.05;6.78;;;;;;;14.86;49.33;100534.31;4969642;28;20047;-62
2022/11/19 03:11:46;;;;;;;13.65;8.02;;;;;;;14.80;49.79;100526.88;4981013;28;20488;-63
2022/11/19 03:17:32;;;;;;;18.90;9.75;;;;;;;14.70;50.25;100540.53;4979172;28;20407;-66
2022/11/19 03:20:12;;;;;;;21.73;9.77;;;;;;;14.64;49.67;100540.31;4969927;28;20038;-65
2022/11/19 03:22:39;;;;;;;20.02;10.27;;;;;;;14.59;50.17;100548.91;4975713;28;20038;-66
2022/11/19 03:25:25;;;;;;;23.98;10.20;;;;;;;14.53;50.51;100544.16;4975557;28;20039;-65
2022/11/19 03:27:54;;;;;;;16.85;8.15;;;;;;;14.45;49.63;100544.97;4960383;28;20034;-63
2022/11/19 03:30:19;;;;;;;14.57;9.15;;;;;;;14.41;49.82;100548.97;4960581;28;20130;-64
2022/11/19 03:32:50;;;;;;;19.73;10.00;;;;;;;14.39;49.18;100547.44;4976794;28;20047;-63
2022/11/19 03:35:22;;;;;;;23.52;10.88;;;;;;;14.34;49.77;100549.78;4976064;28;20135;-64
2022/11/19 03:37:50;;;;;;;18.92;9.00;;;;;;;14.30;50.67;100556.44;4959551;28;20081;-64
2022/11/19 03:40:16;;;;;;;23.67;11.43;;;;;;;14.26;49.24;100557.78;4960423;28;20094;-63
2022/11/19 03:42:43;;;;;;;19.60;9.40;;;;;;;14.21;50.44;100558.25;4960726;28;20516;-63
2022/11/19 03:45:16;;;;;;;19.63;9.82;;;;;;;14.18;49.46;100555.88;4978179;28;20026;-63
2022/11/19 03:47:43;;;;;;;19.45;10.88;;;;;;;14.13;50.58;100554.66;4960459;28;20129;-63
2022/11/19 03:50:22;;;;;;;20.13;9.77;;;;;;;14.11;50.47;100553.97;4959286;28;20042;-65
2022/11/19 03:52:48;;;;;;;24.23;10.13;;;;;;;14.07;49.74;100558.84;4959017;28;20535;-65
2022/11/19 03:55:15;;;;;;;21.70;11.00;;;;;;;14.07;50.20;100566.09;4959022;28;20039;-64
2022/11/19 03:57:40;;;;;;;22.73;9.82;;;;;;;14.00;49.42;100563.19;4959484;28;20039;-64
2022/11/19 04:00:06;;;;;;;22.08;9.50;;;;;;;13.97;50.85;100563.50;4975821;28;20070;-64
2022/11/19 04:02:32;;;;;;;25.55;11.32;;;;;;;13.92;50.42;100566.66;4975203;28;20054;-64
2022/11/19 04:04:57;;;;;;;20.80;9.50;;;;;;;13.91;50.68;100581.13;4943457;28;20062;-64
2022/11/19 04:07:23;;;;;;;19.52;10.35;;;;;;;13.83;50.09;100574.81;4975347;28;20125;-63
2022/11/19 04:09:49;;;;;;;26.95;11.98;;;;;;;13.82;50.20;100581.19;4959539;28;20497;-64
2022/11/19 04:12:24;;;;;;;22.92;11.52;;;;;;;13.76;49.88;100582.66;4976782;28;20473;-62
2022/11/19 04:14:49;;;;;;;23.15;11.60;;;;;;;13.71;49.55;100584.13;4962561;28;20031;-62
2022/11/19 04:17:16;;;;;;;23.38;12.15;;;;;;;13.71;50.19;100590.38;4964535;28;20035;-62
2022/11/19 04:19:41;;;;;;;23.63;11.88;;;;;;;13.66;48.99;100591.84;4983722;28;20090;-62
2022/11/19 04:22:06;;;;;;;25.85;11.10;;;;;;;13.67;50.12;100588.16;4969681;28;20498;-62
2022/11/19 04:24:32;;;;;;;28.23;12.00;;;;;;;13.68;49.32;100600.63;4987268;28;20063;-62
2022/11/19 04:26:57;;;;;;;20.52;10.27;;;;;;;13.66;49.11;100597.22;4987360;28;20034;-61
2022/11/19 04:29:23;;;;;;;20.42;10.20;;;;;;;13.68;49.60;100600.63;4987904;28;20066;-61
2022/11/19 04:31:48;;;;;;;17.50;8.60;;;;;;;13.68;49.61;100600.63;4986087;28;20106;-61
2022/11/19 04:34:13;;;;;;;15.77;8.10;;;;;;;13.66;50.44;100597.22;4985706;28;20057;-61
2022/11/19 04:36:40;;;;;;;14.50;7.63;;;;;;;13.67;49.93;100598.91;4983063;28;20034;-62
2022/11/19 04:39:06;;;;;;;15.15;7.68;;;;;;;13.65;49.74;100606.31;4977269;28;20023;-63
2022/11/19 04:41:32;;;;;;;16.40;9.10;;;;;;;13.63;50.48;100602.91;4959779;28;20122;-62
2022/11/19 04:43:58;;;;;;;19.60;9.40;;;;;;;13.57;50.03;100596.28;4977149;28;20408;-63
2022/11/19 04:46:23;;;;;;;16.35;8.65;;;;;;;13.56;49.72;100604.53;4960342;28;20043;-62
2022/11/19 04:48:48;;;;;;;19.25;10.98;;;;;;;13.54;49.18;100606.53;4978310;28;20060;-62
2022/11/19 04:51:14;;;;;;;19.55;10.07;;;;;;;13.52;49.03;100612.06;4983280;28;20030;-61
2022/11/19 04:53:39;;;;;;;18.90;9.98;;;;;;;13.50;49.09;100618.59;4985761;28;20029;-61
2022/11/19 04:56:06;;;;;;;26.05;10.85;;;;;;;13.50;49.23;100626.69;4968632;28;20038;-61
2022/11/19 04:58:31;;;;;;;22.45;10.77;;;;;;;13.45;50.26;100619.06;4968351;28;20051;-61
2022/11/19 05:00:57;;;;;;;22.98;10.57;;;;;;;13.43;50.25;100614.84;4984440;28;20090;-61
2022/11/19 05:03:22;;;;;;;23.75;11.68;;;;;;;13.40;49.88;100619.50;4968398;28;20058;-61
2022/11/19 05:05:47;;;;;;;23.08;11.25;;;;;;;13.39;50.04;100623.22;4984134;28;20058;-61
2022/11/19 05:08:13;;;;;;;22.13;11.73;;;;;;;13.37;49.49;100619.81;4984517;28;20031;-61
2022/11/19 05:10:38;;;;;;;21.55;11.07;;;;;;;13.37;49.95;100619.81;4982275;28;20093;-61
2022/11/19 05:13:03;;;;;;;24.33;11.68;;;;;;;13.32;50.06;100627.50;4983156;28;20379;-61
2022/11/19 05:15:29;;;;;;;22.33;11.05;;;;;;;13.33;49.35;100631.88;4983803;28;20412;-61
2022/11/19 05:17:54;;;;;;;19.38;8.15;;;;;;;13.29;49.50;100633.19;4985149;28;20038;-61
2022/11/19 05:20:19;;;;;;;15.13;8.30;;;;;;;13.25;49.84;100631.81;4969030;28;20038;-61
2022/11/19 05:22:45;;;;;;;12.23;7.07;;;;;;;13.24;49.58;100635.47;4986586;28;20038;-61
2022/11/19 05:25:10;;;;;;;18.23;7.72;;;;;;;13.23;48.96;100647.22;4987490;28;20035;-61
2022/11/19 05:27:36;;;;;;;16.27;8.75;;;;;;;13.21;49.04;100641.16;4988149;28;20039;-61
2022/11/19 05:30:01;;;;;;;15.65;7.97;;;;;;;13.18;49.03;100646.84;4990044;28;20031;-61
2022/11/19 05:32:26;;;;;;;18.67;10.15;;;;;;;13.19;50.03;100656.59;4991557;28;20031;-61
2022/11/19 05:34:52;;;;;;;18.98;10.05;;;;;;;13.17;48.78;100655.91;4991941;28;20074;-63
2022/11/19 05:37:17;;;;;;;21.70;10.82;;;;;;;13.20;48.81;100658.31;4975379;28;20062;-63
2022/11/19 05:39:43;;;;;;;19.13;9.35;;;;;;;13.14;49.10;100658.06;4993308;28;20042;-61
2022/11/19 05:42:08;;;;;;;23.23;11.20;;;;;;;13.15;49.46;100660.59;4990947;28;20030;-63
2022/11/19 05:44:33;;;;;;;22.60;9.95;;;;;;;13.13;49.29;100659.91;4990952;28;20030;-63
2022/11/19 05:46:59;;;;;;;19.85;9.52;;;;;;;13.10;48.96;100662.88;4971611;28;20484;-61
2022/11/19 05:49:24;;;;;;;20.25;9.20;;;;;;;13.08;48.99;100667.56;4984489;28;20035;-61
2022/11/19 05:51:50;;;;;;;18.80;9.75;;;;;;;13.09;49.75;100669.25;4966368;28;20067;-63
2022/11/19 05:54:15;;;;;;;27.70;10.60;;;;;;;13.09;48.72;100676.50;4983787;28;20038;-61
2022/11/19 05:56:40;;;;;;;21.40;8.23;;;;;;;13.08;49.07;100680.16;4983289;28;20034;-63
2022/11/19 05:59:06;;;;;;;23.27;10.30;;;;;;;13.06;49.57;100671.38;4968001;28;20117;-63
2022/11/19 06:01:31;;;;;;;20.08;9.45;;;;;;;13.05;48.57;100678.59;4987265;28;20035;-61
2022/11/19 06:03:56;;;;;;;23.42;9.38;;;;;;;12.84;48.79;100643.03;4986455;28;20039;-61
2022/11/19 06:06:22;;;;;;;17.67;8.73;;;;;;;13.00;50.13;100680.03;4970146;28;20035;-63
2022/11/19 06:08:48;;;;;;;20.75;9.55;;;;;;;12.94;48.95;100686.84;4981754;28;20066;-62
2022/11/19 06:13:59;;;;;;;25.58;9.38;;;;;;;12.79;49.18;100682.94;4973036;28;20034;-68
2022/11/19 06:16:24;;;;;;;21.40;10.13;;;;;;;12.71;49.59;100688.19;4956551;28;20497;-67
2022/11/19 06:18:50;;;;;;;25.48;9.35;;;;;;;12.65;48.65;100696.84;4974055;28;20039;-68
2022/11/19 06:21:15;;;;;;;19.25;9.13;;;;;;;12.55;48.78;100693.34;4956691;28;20030;-68
2022/11/19 06:23:40;;;;;;;19.98;9.32;;;;;;;12.50;49.40;100698.31;4973142;28;20076;-68
2022/11/19 06:26:07;;;;;;;25.40;8.95;;;;;;;12.45;49.42;100705.94;4972593;28;20042;-68
2022/11/19 06:28:32;;;;;;;21.25;9.40;;;;;;;12.39;49.80;100701.16;4972809;28;20085;-69
2022/11/19 06:30:58;;;;;;;22.15;10.50;;;;;;;12.35;49.44;100699.72;4972952;28;20501;-70
2022/11/19 06:33:23;;;;;;;20.50;9.50;;;;;;;12.28;49.79;100703.00;4956587;28;20073;-68
2022/11/19 06:35:49;;;;;;;20.77;10.00;;;;;;;12.24;49.06;100706.97;4973203;28;20030;-68
2022/11/19 06:38:15;;;;;;;22.90;10.55;;;;;;;12.20;49.79;100713.59;4956442;28;20031;-67
2022/11/19 06:40:40;;;;;;;21.77;9.55;;;;;;;12.16;49.42;100717.56;4972716;28;20034;-66
2022/11/19 06:43:05;;;;;;;27.88;11.18;;;;;;;12.14;49.18;100724.09;4956474;28;20065;-65
2022/11/19 06:45:31;;;;;;;22.52;10.00;;;;;;;12.11;50.02;100725.22;4973778;28;20034;-63
2022/11/19 06:47:56;;;;;;;22.17;9.80;;;;;;;12.12;49.16;100731.41;4977455;28;20035;-63
2022/11/19 06:50:21;;;;;;;20.83;9.77;;;;;;;12.12;49.07;100734.94;4982110;28;20046;-62
2022/11/19 06:52:47;;;;;;;22.13;10.45;;;;;;;12.12;50.25;100736.78;4985618;28;20496;-62
2022/11/19 06:55:13;;;;;;;25.42;10.70;;;;;;;12.12;49.82;100726.88;4990024;28;20054;-61
2022/11/19 06:57:38;;;;;;;22.75;10.10;;;;;;;12.13;50.05;100739.34;5009320;28;20038;-61
2022/11/19 07:00:05;;;;;;;24.45;10.55;;;;;;;12.16;49.56;100747.13;4993415;28;20113;-61
2022/11/19 07:02:30;;;;;;;22.08;9.90;;;;;;;12.19;49.95;100749.50;5009865;28;20038;-61
2022/11/19 07:04:55;;;;;;;25.60;11.82;;;;;;;12.16;49.84;100733.69;5012199;28;20035;-61
2022/11/19 07:07:21;;;;;;;26.50;13.30;;;;;;;12.20;49.20;100745.81;4995653;28;20043;-61
2022/11/19 07:09:46;;;;;;;28.33;10.90;;;;;;;12.20;50.08;100745.81;5012125;28;20030;-61
2022/11/19 07:12:12;;;;;;;26.58;12.20;;;;;;;12.24;49.93;100746.41;5012285;28;20026;-61
2022/11/19 07:14:37;;;;;;;29.27;12.60;;;;;;;12.27;50.08;100757.72;5014608;28;20054;-61
2022/11/19 07:17:04;;;;;;;28.70;13.05;;;;;;;12.28;49.91;100753.19;5014008;28;20035;-61
2022/11/19 07:19:29;;;;;;;44.35;14.25;;;;;;;12.25;49.87;100754.28;5013094;28;20044;-62
2022/11/19 07:21:55;;;;;;;36.45;13.80;;;;;;;12.24;49.20;100755.31;5012544;28;20040;-62
2022/11/19 07:24:20;;;;;;;30.55;13.35;;;;;;;12.27;49.34;100765.75;4996932;28;20040;-62
2022/11/19 07:26:45;;;;;;;23.50;12.57;;;;;;;12.22;50.06;100759.97;5012851;28;20080;-62
2022/11/19 07:29:12;;;;;;;36.03;14.43;;;;;;;12.24;49.24;100768.72;4994728;28;20030;-62
2022/11/19 07:31:38;;;;;;;37.25;15.20;;;;;;;12.23;49.69;100784.97;5013245;28;20030;-62
2022/11/19 07:34:07;;;;;;;30.80;14.38;;;;;;;12.20;49.99;100778.03;4997048;28;20058;-61
2022/11/19 07:36:32;;;;;;;33.20;14.32;;;;;;;12.17;49.65;100778.31;4996567;28;20034;-62
2022/11/19 07:38:58;;;;;;;39.92;16.88;;;;;;;12.19;49.72;100781.75;5013831;28;20094;-61
2022/11/19 07:44:07;;;;;;;38.80;15.93;;;;;;;12.18;49.09;100780.03;5013447;28;20095;-61
2022/11/19 07:46:33;;;;;;;37.30;15.88;;;;;;;12.20;49.08;100793.31;5012156;28;20110;-61
2022/11/19 07:48:58;;;;;;;36.47;16.40;;;;;;;12.19;49.71;100792.47;5013274;28;20049;-61
2022/11/19 07:51:24;;;;;;;35.83;15.45;;;;;;;12.19;50.08;100797.00;5013414;28;20033;-61
2022/11/19 07:53:50;;;;;;;35.67;15.27;;;;;;;12.17;49.04;100805.19;5003005;28;20050;-61
2022/11/19 07:56:16;;;;;;;37.45;15.50;;;;;;;12.15;49.09;100807.16;4999269;28;20035;-61
2022/11/19 07:58:41;;;;;;;38.13;16.20;;;;;;;12.16;49.09;100808.88;5002033;28;20027;-61
2022/11/19 08:01:18;;;;;;;39.13;15.32;;;;;;;12.16;48.76;100805.34;5000417;28;20038;-61
2022/11/19 08:03:47;;;;;;;35.50;13.30;;;;;;;12.20;49.00;100820.16;4997636;28;20037;-61
2022/11/19 08:06:14;;;;;;;37.13;14.13;;;;;;;12.19;49.40;100823.84;4998457;28;20165;-61
2022/11/19 08:08:40;;;;;;;39.80;14.30;;;;;;;12.18;48.71;100828.38;4992507;28;20029;-61
2022/11/19 08:11:07;;;;;;;38.70;15.45;;;;;;;12.20;50.01;100823.69;5007539;28;20031;-61
2022/11/19 08:13:33;;;;;;;33.67;16.02;;;;;;;12.20;49.21;100814.78;4996907;28;20038;-61
2022/11/19 08:15:59;;;;;;;34.28;14.23;;;;;;;12.19;49.07;100813.97;5006780;28;20035;-61
2022/11/19 08:18:25;;;;;;;38.50;14.13;;;;;;;12.16;48.97;100819.63;5006966;28;20416;-61
2022/11/19 08:20:51;;;;;;;31.05;12.32;;;;;;;12.15;49.33;100828.63;5006910;28;20027;-61
2022/11/19 08:23:16;;;;;;;35.40;14.73;;;;;;;12.16;48.89;100830.34;4966110;28;20035;-61
2022/11/19 08:25:43;;;;;;;34.42;13.80;;;;;;;12.19;48.72;100834.59;4987628;28;20059;-61
2022/11/19 08:28:09;;;;;;;34.72;13.77;;;;;;;12.20;49.30;100830.91;4985952;28;20097;-61
2022/11/19 08:30:34;;;;;;;34.72;15.00;;;;;;;12.20;49.58;100831.75;4990562;28;20035;-61
2022/11/19 08:32:59;;;;;;;34.90;14.63;;;;;;;12.23;49.72;100841.38;4992403;28;20054;-61
2022/11/19 08:35:25;;;;;;;34.05;14.70;;;;;;;12.24;49.38;100843.94;4991568;28;20046;-62
2022/11/19 08:37:50;;;;;;;38.78;15.43;;;;;;;12.24;48.87;100843.94;4992535;28;20040;-61
2022/11/19 08:40:16;;;;;;;39.40;15.90;;;;;;;12.21;49.57;100844.19;5007453;28;20039;-61
2022/11/19 08:42:59;;;;;;;42.33;16.63;;;;;;;12.24;48.86;100838.56;4991607;28;20057;-61
2022/11/19 08:45:27;;;;;;;41.92;17.25;;;;;;;12.27;48.43;100838.28;4991076;28;20090;-61
2022/11/19 08:47:54;;;;;;;39.88;18.83;;;;;;;12.30;48.50;100841.66;4991275;28;20050;-62
2022/11/19 08:50:19;;;;;;;44.83;18.75;;;;;;;12.33;48.30;100852.13;4990843;28;20034;-61
2022/11/19 08:52:45;;;;;;;40.22;19.48;;;;;;;12.32;48.60;100842.38;4991107;28;20034;-61
2022/11/19 08:55:10;;;;;;;40.67;17.88;;;;;;;12.35;48.43;100851.00;5006951;28;20035;-61
2022/11/19 08:57:36;;;;;;;38.33;17.20;;;;;;;12.37;48.64;100858.94;4991575;28;20031;-61
2022/11/19 09:00:01;;;;;;;45.88;17.00;;;;;;;12.33;48.60;100853.00;4992812;28;20042;-61
2022/11/19 09:02:26;;;;;;;36.78;15.10;;;;;;;12.35;49.05;100860.88;4992321;28;20099;-62
2022/11/19 09:04:52;;;;;;;37.38;15.55;;;;;;;12.34;48.40;100853.84;4991739;28;20022;-61
2022/11/19 09:07:17;;;;;;;38.95;16.45;;;;;;;12.32;48.78;100853.09;5007511;28;20042;-61
2022/11/19 09:09:42;;;;;;;38.30;15.18;;;;;;;12.35;49.00;100855.50;4990884;28;20049;-61
2022/11/19 09:12:11;;;;;;;33.50;14.43;;;;;;;12.39;49.11;100862.31;4990854;28;20027;-61
2022/11/19 09:14:36;;;;;;;34.25;14.18;;;;;;;12.36;48.22;100855.41;5006810;28;20030;-61
2022/11/19 09:17:02;;;;;;;33.35;13.63;;;;;;;12.37;48.97;100867.81;4991147;28;20117;-61
2022/11/19 09:19:28;;;;;;;36.38;13.10;;;;;;;12.37;48.22;100867.00;4990801;28;20043;-61
2022/11/19 09:21:53;;;;;;;28.05;13.20;;;;;;;12.38;48.74;100871.34;5005465;28;20090;-61
2022/11/19 09:24:18;;;;;;;31.05;14.07;;;;;;;12.40;48.73;100869.38;4988804;28;20046;-61
2022/11/19 09:26:44;;;;;;;30.95;14.00;;;;;;;12.39;49.04;100873.91;4990187;28;20042;-61
2022/11/19 09:29:09;;;;;;;35.55;13.82;;;;;;;12.39;48.19;100873.91;5004697;28;20038;-61
2022/11/19 09:31:35;;;;;;;31.05;14.15;;;;;;;12.40;48.96;100872.91;5004167;28;20043;-61
2022/11/19 09:34:00;;;;;;;29.45;13.70;;;;;;;12.39;48.41;100873.06;4988623;28;20041;-61
2022/11/19 09:36:25;;;;;;;45.15;16.30;;;;;;;12.41;49.10;100879.13;4989594;28;20085;-61
2022/11/19 09:38:55;;;;;;;29.27;13.82;;;;;;;12.39;48.97;100878.44;4990582;28;20496;-61
2022/11/19 09:41:52;;;;;;;34.97;13.18;;;;;;;12.43;48.32;100885.22;4990416;28;20086;-61
2022/11/19 09:44:54;;;;;;;38.05;13.98;;;;;;;12.44;48.09;100884.25;5006196;28;20054;-61
2022/11/19 09:47:52;;;;;;;33.22;13.00;;;;;;;12.45;48.55;100891.31;5004824;28;20070;-61
2022/11/19 09:50:19;;;;;;;32.78;12.60;;;;;;;12.44;48.04;100886.91;5004478;28;20503;-61
2022/11/19 09:52:57;;;;;;;36.25;14.88;;;;;;;12.45;48.19;100894.00;5005935;28;20122;-61
2022/11/19 09:55:29;;;;;;;32.35;14.10;;;;;;;12.50;48.61;100894.44;5004098;28;20400;-61
2022/11/19 09:57:55;;;;;;;30.87;13.53;;;;;;;12.54;47.88;100894.00;5004136;28;20033;-61
2022/11/19 10:00:24;;;;;;;25.50;12.95;;;;;;;12.57;48.16;100887.50;5003976;28;20761;-61
2022/11/19 10:02:49;;;;;;;30.08;12.52;;;;;;;12.60;47.96;100897.97;4980408;28;20064;-61
2022/11/19 10:05:28;;;;;;;35.33;13.00;;;;;;;12.59;47.95;100893.59;4978817;28;20121;-61
2022/11/19 10:08:03;;;;;;;30.35;13.00;;;;;;;12.57;47.78;100909.00;4994338;28;20487;-61
2022/11/19 10:11:01;;;;;;;29.55;13.65;;;;;;;12.51;48.07;100913.09;4994888;28;20045;-61
2022/11/19 10:13:32;;;;;;;26.92;12.63;;;;;;;12.49;48.11;100919.59;4950951;28;20125;-61
2022/11/19 10:15:57;;;;;;;30.85;12.60;;;;;;;12.48;48.41;100916.03;4993315;28;20047;-61
2022/11/19 10:18:44;;;;;;;27.33;12.23;;;;;;;12.49;47.84;100916.91;4994505;28;20065;-62
2022/11/19 10:21:26;;;;;;;34.33;13.32;;;;;;;12.50;48.47;100918.59;4995002;28;20439;-62
2022/11/19 10:24:17;;;;;;;26.02;11.55;;;;;;;12.49;48.76;100917.75;4993150;28;20128;-62
2022/11/19 10:26:58;;;;;;;35.00;13.00;;;;;;;12.48;47.78;100916.03;4992908;28;20062;-62
2022/11/19 10:29:27;;;;;;;27.38;12.68;;;;;;;12.49;48.41;100922.28;4994037;28;20408;-62
2022/11/19 10:31:53;;;;;;;29.80;12.18;;;;;;;12.46;48.65;100923.41;4997684;28;20488;-62
2022/11/19 10:34:32;;;;;;;42.28;14.68;;;;;;;12.48;48.73;100925.97;4981433;28;20038;-62
2022/11/19 10:37:06;;;;;;;26.90;11.90;;;;;;;12.45;47.64;100923.56;4982417;28;20427;-60
2022/11/19 10:39:37;;;;;;;34.20;11.88;;;;;;;12.43;47.62;100921.00;5001844;28;20038;-60
2022/11/19 10:42:19;;;;;;;30.23;12.98;;;;;;;12.41;48.09;100931.03;4982764;28;20034;-61
2022/11/19 10:45:14;;;;;;;36.08;13.38;;;;;;;12.41;48.01;100920.28;4997748;28;20057;-62
2022/11/19 10:48:06;;;;;;;25.63;10.73;;;;;;;12.40;47.99;100928.47;4998325;28;20055;-61
2022/11/19 10:50:32;;;;;;;34.47;12.50;;;;;;;12.38;48.87;100931.31;5000131;28;20496;-61
2022/11/19 10:53:04;;;;;;;27.50;12.13;;;;;;;12.40;48.29;100928.47;4997333;28;20030;-61
2022/11/19 10:55:37;;;;;;;33.13;12.68;;;;;;;12.39;48.56;100927.66;4998209;28;20502;-60
2022/11/19 10:58:21;;;;;;;28.00;11.80;;;;;;;12.41;48.52;100932.88;4998856;28;20038;-60
2022/11/19 11:00:47;;;;;;;25.25;10.82;;;;;;;12.40;47.78;100926.63;5002648;28;20038;-60
2022/11/19 11:03:28;;;;;;;26.80;11.27;;;;;;;12.42;47.93;100924.69;5004790;28;20030;-60
2022/11/19 11:05:54;;;;;;;23.00;10.48;;;;;;;12.42;47.73;100924.69;4991536;28;20029;-61
2022/11/19 11:08:20;;;;;;;23.35;10.38;;;;;;;12.38;48.25;100919.72;4989512;28;20094;-60
2022/11/19 11:10:45;;;;;;;27.08;11.27;;;;;;;12.41;48.19;100924.81;4973824;28;20094;-60
2022/11/19 11:16:20;;;;;;;24.75;11.60;;;;;;;12.39;47.61;100918.72;5006476;28;20045;-61
2022/11/19 11:18:46;;;;;;;24.80;11.25;;;;;;;12.41;48.51;100914.06;4988983;28;20500;-61
2022/11/19 11:21:30;;;;;;;23.08;10.93;;;;;;;12.43;47.57;100914.75;4990051;28;20038;-61
2022/11/19 11:23:56;;;;;;;27.92;10.57;;;;;;;12.44;48.04;100913.78;5005757;28;20085;-62
2022/11/19 11:26:26;;;;;;;30.00;11.30;;;;;;;12.44;48.78;100919.16;5004686;28;20042;-62
2022/11/19 11:28:53;;;;;;;26.83;10.40;;;;;;;12.44;48.33;100924.53;5004783;28;20038;-62
2022/11/19 11:31:40;;;;;;;24.40;10.18;;;;;;;12.43;48.13;100928.19;5006254;28;20415;-62
2022/11/19 11:34:14;;;;;;;24.90;10.52;;;;;;;12.43;47.77;100920.13;4988625;28;20042;-62
2022/11/19 11:36:40;;;;;;;26.83;11.55;;;;;;;12.44;48.12;100921.84;4989584;28;20046;-61
2022/11/19 11:39:05;;;;;;;30.75;12.45;;;;;;;12.45;47.54;100916.31;5004907;28;20066;-61
2022/11/19 11:41:41;;;;;;;26.95;11.27;;;;;;;12.48;47.76;100920.59;4986615;28;20038;-61